Time;durP1;ratioP1;P1;durP2;ratioP2;P2;SDS_P1;SDS_P2;PMS_P1;PMS_P2;Temp;Humidity;BMP_temperature;BMP_pressure;BME280_temperature;BME280_humidity;BME280_pressure;Samples;Min_cycle;Max_cycle;Signal;HPM_P1;HPM_P2
2021/10/09 00:01:10;;;;;;;22.08;11.13;;;11.30;98.00;;;;;;5095718;28;20027;-82
2021/10/09 00:03:36;;;;;;;23.40;11.15;;;11.30;98.00;;;;;;5095924;28;20077;-81
2021/10/09 00:06:01;;;;;;;20.92;10.38;;;11.30;98.00;;;;;;5096602;28;20043;-83
2021/10/09 00:08:27;;;;;;;26.40;11.75;;;11.30;98.10;;;;;;5076598;28;20025;-82
2021/10/09 00:10:53;;;;;;;22.95;10.80;;;11.20;98.10;;;;;;5076198;28;20024;-83
2021/10/09 00:13:19;;;;;;;24.52;11.57;;;11.20;98.10;;;;;;5091827;28;20032;-83
2021/10/09 00:15:44;;;;;;;26.08;11.05;;;11.20;98.10;;;;;;5096586;28;20073;-82
2021/10/09 00:18:10;;;;;;;25.63;11.35;;;11.20;98.10;;;;;;5095339;28;20025;-83
2021/10/09 00:20:36;;;;;;;23.00;11.18;;;11.10;98.10;;;;;;5095128;28;20081;-83
2021/10/09 00:23:01;;;;;;;23.35;11.48;;;11.10;98.40;;;;;;5074915;28;20032;-83
2021/10/09 00:25:27;;;;;;;23.75;10.88;;;11.00;98.20;;;;;;5075190;28;20033;-82
2021/10/09 00:27:53;;;;;;;23.70;12.00;;;11.00;98.20;;;;;;5075946;28;20036;-82
2021/10/09 00:30:18;;;;;;;23.33;10.68;;;11.00;98.20;;;;;;5074345;28;20035;-83
2021/10/09 00:32:44;;;;;;;23.50;11.40;;;11.00;98.20;;;;;;5092029;28;20024;-83
2021/10/09 00:35:10;;;;;;;24.15;12.13;;;10.90;98.20;;;;;;5095078;28;20478;-83
2021/10/09 00:37:36;;;;;;;19.45;10.02;;;10.80;98.30;;;;;;5096374;28;20454;-83
2021/10/09 00:40:02;;;;;;;23.45;11.15;;;10.80;98.30;;;;;;5095850;28;20024;-84
2021/10/09 00:42:28;;;;;;;19.33;10.13;;;10.80;98.30;;;;;;5094419;28;20050;-81
2021/10/09 00:44:54;;;;;;;21.48;10.40;;;10.80;98.20;;;;;;5095836;28;20473;-83
2021/10/09 00:47:23;;;;;;;19.88;10.57;;;10.70;98.10;;;;;;5094533;28;20024;-83
2021/10/09 00:49:49;;;;;;;24.27;11.88;;;10.70;98.20;;;;;;5094647;28;20024;-83
2021/10/09 00:52:15;;;;;;;25.30;12.27;;;10.60;98.20;;;;;;5092422;28;20056;-83
2021/10/09 00:54:46;;;;;;;27.38;11.93;;;10.60;98.70;;;;;;5094704;28;20035;-83
2021/10/09 00:57:16;;;;;;;19.27;11.15;;;10.60;98.50;;;;;;5095014;28;20048;-83
2021/10/09 00:59:42;;;;;;;21.77;11.30;;;10.60;98.60;;;;;;5094613;28;20031;-83
2021/10/09 01:02:09;;;;;;;22.38;11.05;;;10.60;98.70;;;;;;5077720;28;20090;-83
2021/10/09 01:04:36;;;;;;;25.38;11.82;;;10.60;98.70;;;;;;5073842;28;20087;-83
2021/10/09 01:07:04;;;;;;;22.73;11.57;;;10.50;98.80;;;;;;5072776;28;20040;-88
2021/10/09 01:09:29;;;;;;;23.17;11.27;;;10.50;98.90;;;;;;5074481;28;20021;-83
2021/10/09 01:11:55;;;;;;;23.67;11.23;;;10.50;98.60;;;;;;5077027;28;20484;-83
2021/10/09 01:14:21;;;;;;;19.50;10.75;;;10.50;98.50;;;;;;5081124;28;20032;-83
2021/10/09 01:16:46;;;;;;;22.73;11.57;;;10.50;98.70;;;;;;5102150;28;20452;-83
2021/10/09 01:19:12;;;;;;;25.15;12.30;;;10.40;98.80;;;;;;5113279;28;20384;-83
2021/10/09 01:21:44;;;;;;;21.48;11.55;;;10.40;98.70;;;;;;5094039;28;20127;-82
2021/10/09 01:24:11;;;;;;;23.58;11.40;;;10.40;98.70;;;;;;5093757;28;20062;-83
2021/10/09 01:26:37;;;;;;;24.08;12.18;;;10.40;98.70;;;;;;5092426;28;20032;-82
2021/10/09 01:29:04;;;;;;;23.38;11.55;;;10.30;98.70;;;;;;5093744;28;20373;-83
2021/10/09 01:31:31;;;;;;;24.63;11.88;;;10.30;98.80;;;;;;5094110;28;20031;-83
2021/10/09 01:33:57;;;;;;;24.90;11.23;;;10.30;98.80;;;;;;5088934;28;20119;-83
2021/10/09 01:36:31;;;;;;;24.30;11.05;;;10.30;99.00;;;;;;5073426;28;20596;-82
2021/10/09 01:38:58;;;;;;;19.75;10.52;;;10.30;99.20;;;;;;5074026;28;20501;-82
2021/10/09 01:41:24;;;;;;;24.52;11.10;;;10.30;99.10;;;;;;5074458;28;20024;-83
2021/10/09 01:43:50;;;;;;;25.63;12.02;;;10.30;99.20;;;;;;5073794;28;20112;-83
2021/10/09 01:46:15;;;;;;;27.90;12.80;;;10.30;99.20;;;;;;5074204;28;20527;-83
2021/10/09 01:48:41;;;;;;;24.80;11.88;;;10.30;99.20;;;;;;5074496;28;20035;-83
2021/10/09 01:51:08;;;;;;;21.75;11.25;;;10.30;99.20;;;;;;5080048;28;20093;-83
2021/10/09 01:53:35;;;;;;;27.58;11.98;;;10.30;99.20;;;;;;5093695;28;20024;-83
2021/10/09 01:56:00;;;;;;;26.40;11.60;;;10.30;99.10;;;;;;5083590;28;20435;-83
2021/10/09 01:58:26;;;;;;;31.42;11.77;;;10.30;99.00;;;;;;5093353;28;20032;-83
2021/10/09 02:00:52;;;;;;;24.73;11.05;;;10.30;99.00;;;;;;5093817;28;20055;-83
2021/10/09 02:03:20;;;;;;;21.42;10.88;;;10.30;98.90;;;;;;5093159;28;20071;-83
2021/10/09 02:05:46;;;;;;;22.23;10.73;;;10.20;99.00;;;;;;5084942;28;20032;-84
2021/10/09 02:08:12;;;;;;;22.75;11.73;;;10.20;99.10;;;;;;5074501;28;20036;-83
2021/10/09 02:11:02;;;;;;;30.67;12.63;;;10.20;99.10;;;;;;5073097;28;20115;-83
2021/10/09 02:13:50;;;;;;;21.77;10.90;;;10.20;99.20;;;;;;5073052;28;20033;-83
2021/10/09 02:27:08;;;;;;;21.15;11.10;;;10.20;99.20;;;;;;5093985;28;20103;-85
2021/10/09 02:29:33;;;;;;;27.15;12.23;;;10.20;99.20;;;;;;5101095;28;20064;-83
2021/10/09 02:31:59;;;;;;;25.00;11.45;;;10.20;99.10;;;;;;5093315;28;20058;-83
2021/10/09 02:34:24;;;;;;;22.60;11.32;;;10.20;99.00;;;;;;5092297;28;20461;-83
2021/10/09 02:36:50;;;;;;;22.85;10.82;;;10.20;99.00;;;;;;5081577;28;20085;-83
2021/10/09 02:39:16;;;;;;;22.58;10.93;;;10.20;99.00;;;;;;5072162;28;20028;-83
2021/10/09 02:41:42;;;;;;;21.98;10.68;;;10.20;98.90;;;;;;5085634;28;20032;-82
2021/10/09 02:44:07;;;;;;;21.75;11.65;;;10.20;98.90;;;;;;5091924;28;20039;-83
2021/10/09 02:46:33;;;;;;;20.48;11.20;;;10.20;98.90;;;;;;5084759;28;20468;-83
2021/10/09 02:48:59;;;;;;;22.15;11.25;;;10.20;98.90;;;;;;5072680;28;20025;-83
2021/10/09 02:51:24;;;;;;;22.38;11.52;;;10.10;98.90;;;;;;5071985;28;20338;-82
2021/10/09 02:53:50;;;;;;;24.35;11.25;;;10.20;98.90;;;;;;5072834;28;20075;-83
2021/10/09 02:56:15;;;;;;;25.05;11.23;;;10.20;98.90;;;;;;5072079;28;20052;-83
2021/10/09 02:58:41;;;;;;;21.40;10.85;;;10.20;98.80;;;;;;5073111;28;20035;-82
2021/10/09 03:01:07;;;;;;;23.15;10.45;;;10.20;98.80;;;;;;5072443;28;20092;-84
2021/10/09 03:03:32;;;;;;;23.98;10.98;;;10.10;98.90;;;;;;5072687;28;20025;-83
2021/10/09 03:05:58;;;;;;;19.73;11.13;;;10.10;98.90;;;;;;5073728;28;20461;-81
2021/10/09 03:08:23;;;;;;;23.95;10.73;;;10.10;99.00;;;;;;5091797;28;20481;-83
2021/10/09 03:10:49;;;;;;;23.02;11.75;;;10.10;99.00;;;;;;5093423;28;20024;-81
2021/10/09 03:13:15;;;;;;;18.75;10.68;;;10.00;99.00;;;;;;5093688;28;20024;-83
2021/10/09 03:15:40;;;;;;;21.30;11.13;;;10.00;99.40;;;;;;5093875;28;20411;-83
2021/10/09 03:18:06;;;;;;;25.58;11.38;;;10.00;99.10;;;;;;5091866;28;20473;-83
2021/10/09 03:20:32;;;;;;;24.27;11.20;;;10.00;99.00;;;;;;5092518;28;20024;-83
2021/10/09 03:22:57;;;;;;;23.23;10.68;;;9.90;99.00;;;;;;5092674;28;20119;-83
2021/10/09 03:25:23;;;;;;;20.33;10.70;;;10.00;99.10;;;;;;5083618;28;20508;-82
2021/10/09 03:27:49;;;;;;;23.58;11.23;;;9.90;99.10;;;;;;5084434;28;20492;-82
2021/10/09 03:30:14;;;;;;;22.33;11.10;;;9.90;99.10;;;;;;5078487;28;20036;-83
2021/10/09 03:32:40;;;;;;;20.92;10.90;;;9.90;99.00;;;;;;5076056;28;20450;-83
2021/10/09 03:35:07;;;;;;;23.65;11.00;;;9.90;99.00;;;;;;5075254;28;20044;-82
2021/10/09 03:37:34;;;;;;;22.38;10.40;;;9.90;99.10;;;;;;5080623;28;20024;-83
2021/10/09 03:40:02;;;;;;;23.00;10.43;;;9.90;99.00;;;;;;5096628;28;20020;-83
2021/10/09 03:42:36;;;;;;;21.70;10.98;;;9.90;99.10;;;;;;5094654;28;20039;-83
2021/10/09 03:45:09;;;;;;;26.98;11.63;;;9.90;99.10;;;;;;5095171;28;20024;-83
2021/10/09 03:52:45;;;;;;;24.27;10.65;;;9.80;98.90;;;;;;5077344;28;20030;-81
2021/10/09 03:55:14;;;;;;;24.88;11.93;;;9.80;98.90;;;;;;5076161;28;20036;-90
2021/10/09 03:57:40;;;;;;;24.08;11.05;;;9.80;98.90;;;;;;5075545;28;20064;-83
2021/10/09 04:00:08;;;;;;;22.15;12.00;;;9.80;98.90;;;;;;5095460;28;20469;-83
2021/10/09 04:02:34;;;;;;;24.38;11.23;;;9.80;98.80;;;;;;5082374;28;20031;-83
2021/10/09 04:05:00;;;;;;;21.48;10.75;;;9.70;98.90;;;;;;5075304;28;20032;-82
2021/10/09 04:07:26;;;;;;;22.60;11.25;;;9.70;98.90;;;;;;5075281;28;20024;-82
2021/10/09 04:09:52;;;;;;;22.92;10.43;;;9.70;98.90;;;;;;5092953;28;20367;-83
2021/10/09 04:12:18;;;;;;;24.67;11.07;;;9.70;99.00;;;;;;5075467;28;20039;-83
2021/10/09 04:14:43;;;;;;;20.90;10.43;;;9.60;99.00;;;;;;5075752;28;20029;-83
2021/10/09 04:17:09;;;;;;;22.98;11.15;;;9.70;99.00;;;;;;5075979;28;20031;-83
2021/10/09 04:19:35;;;;;;;25.25;10.98;;;9.70;99.10;;;;;;5076643;28;20032;-82
2021/10/09 04:22:00;;;;;;;28.60;12.32;;;9.60;99.00;;;;;;5075782;28;20025;-82
2021/10/09 04:24:26;;;;;;;23.77;10.35;;;9.60;99.00;;;;;;5074940;28;20032;-81
2021/10/09 04:26:52;;;;;;;21.70;10.63;;;9.60;99.00;;;;;;5075475;28;20020;-82
2021/10/09 04:29:18;;;;;;;20.48;10.88;;;9.60;99.10;;;;;;5075438;28;20029;-82
2021/10/09 04:31:44;;;;;;;29.30;11.82;;;9.60;99.00;;;;;;5075556;28;20028;-83
2021/10/09 04:34:09;;;;;;;27.45;11.43;;;9.50;99.00;;;;;;5075253;28;20082;-83
2021/10/09 04:36:35;;;;;;;25.30;11.20;;;9.50;99.10;;;;;;5075018;28;20028;-82
2021/10/09 04:39:01;;;;;;;24.42;11.43;;;9.50;99.00;;;;;;5085784;28;20055;-83
2021/10/09 04:41:26;;;;;;;25.25;11.68;;;9.50;99.00;;;;;;5094970;28;20488;-83
2021/10/09 04:43:52;;;;;;;26.83;12.50;;;9.50;99.10;;;;;;5095110;28;20035;-83
2021/10/09 04:46:18;;;;;;;23.90;11.65;;;9.40;99.00;;;;;;5094561;28;20052;-83
2021/10/09 04:48:43;;;;;;;23.50;12.02;;;9.40;99.10;;;;;;5075829;28;20024;-83
2021/10/09 04:51:09;;;;;;;24.35;10.90;;;9.40;99.10;;;;;;5084961;28;20024;-83
2021/10/09 04:53:35;;;;;;;21.63;11.07;;;9.40;99.20;;;;;;5094588;28;20476;-83
2021/10/09 04:56:00;;;;;;;21.75;10.75;;;9.40;99.20;;;;;;5094968;28;20039;-83
2021/10/09 04:58:26;;;;;;;19.48;10.13;;;9.30;99.20;;;;;;5079301;28;20064;-83
2021/10/09 05:00:52;;;;;;;26.20;11.65;;;9.30;99.30;;;;;;5074874;28;20035;-83
2021/10/09 05:03:18;;;;;;;23.88;11.52;;;9.30;99.30;;;;;;5074011;28;20035;-84
2021/10/09 05:05:44;;;;;;;26.13;11.50;;;9.30;99.40;;;;;;5074717;28;20060;-82
2021/10/09 05:08:10;;;;;;;21.70;11.10;;;9.30;99.40;;;;;;5075487;28;20032;-83
2021/10/09 05:10:36;;;;;;;25.20;11.48;;;9.20;99.40;;;;;;5074214;28;20020;-83
2021/10/09 05:13:02;;;;;;;24.40;11.23;;;9.20;99.50;;;;;;5084902;28;20073;-82
2021/10/09 05:15:27;;;;;;;23.40;11.10;;;9.20;99.40;;;;;;5094612;28;20043;-83
2021/10/09 05:17:53;;;;;;;26.65;12.48;;;9.20;99.50;;;;;;5094389;28;20028;-82
2021/10/09 05:20:19;;;;;;;25.75;11.23;;;9.20;99.40;;;;;;5095176;28;20483;-84
2021/10/09 05:22:45;;;;;;;24.73;11.43;;;9.20;99.40;;;;;;5091088;28;20481;-83
2021/10/09 05:25:11;;;;;;;24.15;10.93;;;9.20;99.40;;;;;;5074272;28;20032;-83
2021/10/09 05:27:38;;;;;;;24.15;11.30;;;9.10;99.40;;;;;;5073792;28;20187;-82
2021/10/09 05:30:07;;;;;;;26.02;11.75;;;9.10;99.40;;;;;;5074301;28;20028;-82
2021/10/09 05:32:36;;;;;;;25.00;11.00;;;9.10;99.40;;;;;;5073522;28;20025;-83
2021/10/09 05:35:02;;;;;;;23.02;10.73;;;9.10;99.40;;;;;;5073302;28;20028;-83
2021/10/09 05:37:31;;;;;;;25.58;11.55;;;9.10;99.40;;;;;;5073292;28;20062;-83
2021/10/09 05:39:57;;;;;;;20.88;11.02;;;9.10;99.40;;;;;;5073803;28;20028;-82
2021/10/09 05:42:23;;;;;;;25.27;11.75;;;9.10;99.30;;;;;;5090850;28;20028;-82
2021/10/09 05:44:50;;;;;;;23.27;11.02;;;9.10;99.50;;;;;;5087484;28;20035;-83
2021/10/09 05:47:16;;;;;;;20.80;10.57;;;9.10;99.40;;;;;;5085564;28;20055;-90
2021/10/09 05:49:42;;;;;;;26.52;11.55;;;9.10;99.40;;;;;;5087439;28;20044;-83
2021/10/09 05:52:14;;;;;;;24.98;11.98;;;9.10;99.40;;;;;;5093949;28;20027;-82
2021/10/09 05:57:10;;;;;;;25.15;11.55;;;9.10;99.40;;;;;;5115374;28;20553;-82
2021/10/09 06:43:18;;;;;;;25.10;11.35;;;9.20;99.40;;;;;;5114581;28;20038;-82
2021/10/09 06:46:09;;;;;;;23.77;11.55;;;9.20;99.40;;;;;;5087173;28;20481;-82
2021/10/09 06:59:31;;;;;;;25.42;10.70;;;9.20;99.50;;;;;;5113804;28;20034;-81
2021/10/09 07:01:58;;;;;;;24.73;10.73;;;9.20;99.50;;;;;;5115229;28;20027;-82
2021/10/09 07:04:24;;;;;;;22.25;10.25;;;9.20;99.40;;;;;;5101836;28;20032;-82
2021/10/09 07:06:52;;;;;;;25.25;12.40;;;9.30;99.40;;;;;;5096136;28;20024;-82
2021/10/09 07:09:18;;;;;;;21.58;10.50;;;9.30;99.50;;;;;;5096774;28;20046;-82
2021/10/09 07:11:44;;;;;;;28.13;12.20;;;9.30;99.40;;;;;;5097805;28;20386;-82
2021/10/09 07:14:09;;;;;;;25.73;11.38;;;9.40;99.50;;;;;;5096731;28;20405;-81
2021/10/09 07:16:35;;;;;;;24.50;11.80;;;9.40;99.30;;;;;;5096619;28;20067;-82
2021/10/09 07:19:01;;;;;;;27.83;11.57;;;9.40;99.30;;;;;;5096863;28;20048;-82
2021/10/09 07:21:27;;;;;;;21.38;11.40;;;9.40;99.30;;;;;;5096636;28;20024;-82
2021/10/09 07:23:53;;;;;;;25.95;10.88;;;9.50;99.60;;;;;;5097434;28;20020;-81
2021/10/09 07:26:19;;;;;;;23.65;10.60;;;9.50;99.20;;;;;;5095882;28;20461;-90
2021/10/09 07:28:45;;;;;;;21.42;10.77;;;9.50;99.10;;;;;;5096359;28;20027;-82
2021/10/09 07:31:10;;;;;;;19.70;10.15;;;9.60;99.30;;;;;;5097055;28;20035;-81
2021/10/09 07:33:38;;;;;;;21.25;10.98;;;9.60;99.20;;;;;;5119199;28;20027;-81
2021/10/09 07:36:04;;;;;;;20.80;10.07;;;9.60;99.10;;;;;;5106751;28;20393;-83
2021/10/09 07:38:30;;;;;;;23.33;10.60;;;9.70;99.00;;;;;;5097613;28;20077;-82
2021/10/09 07:40:56;;;;;;;21.00;9.43;;;9.70;99.10;;;;;;5097663;28;20439;-80
2021/10/09 07:43:22;;;;;;;24.70;10.52;;;9.70;99.00;;;;;;5097768;28;20032;-83
2021/10/09 07:45:48;;;;;;;22.05;9.77;;;9.90;99.10;;;;;;5097882;28;20115;-81
2021/10/09 07:48:14;;;;;;;24.27;10.25;;;9.90;98.90;;;;;;5097170;28;20024;-80
2021/10/09 07:50:40;;;;;;;22.45;9.75;;;9.90;98.90;;;;;;5095468;28;20435;-81
2021/10/09 07:53:06;;;;;;;20.88;10.85;;;9.90;98.90;;;;;;5096208;28;20056;-80
2021/10/09 07:55:31;;;;;;;21.33;9.98;;;10.00;98.90;;;;;;5095663;28;20028;-80
2021/10/09 07:57:57;;;;;;;20.98;10.73;;;10.10;98.80;;;;;;5094292;28;20094;-80
2021/10/09 08:00:23;;;;;;;23.63;10.43;;;10.10;98.70;;;;;;5086837;28;20066;-81
2021/10/09 08:02:50;;;;;;;22.38;9.90;;;10.20;98.60;;;;;;5077758;28;20028;-80
2021/10/09 08:05:17;;;;;;;20.48;9.23;;;10.30;98.70;;;;;;5090710;28;20032;-80
2021/10/09 08:07:43;;;;;;;19.25;10.13;;;10.30;98.40;;;;;;5095485;28;20054;-80
2021/10/09 08:10:09;;;;;;;21.08;9.38;;;10.40;98.20;;;;;;5095224;28;20090;-81
2021/10/09 08:12:35;;;;;;;19.35;10.52;;;10.40;97.90;;;;;;5096196;28;20031;-81
2021/10/09 08:15:00;;;;;;;21.92;9.80;;;10.50;97.90;;;;;;5095418;28;20032;-81
2021/10/09 08:17:26;;;;;;;19.08;9.35;;;10.50;97.80;;;;;;5094088;28;20522;-81
2021/10/09 08:19:53;;;;;;;17.67;9.30;;;10.50;97.80;;;;;;5096245;28;20031;-81
2021/10/09 08:22:20;;;;;;;21.45;9.32;;;10.60;97.70;;;;;;5094597;28;20148;-80
2021/10/09 08:25:42;;;;;;;18.85;9.95;;;10.70;97.80;;;;;;5105463;28;20419;-80
2021/10/09 08:35:32;;;;;;;21.95;9.77;;;10.90;97.30;;;;;;5095788;28;20048;-81
2021/10/09 08:40:42;;;;;;;17.83;9.90;;;10.90;97.40;;;;;;5094576;28;20035;-81
2021/10/09 08:43:08;;;;;;;22.77;10.40;;;11.00;97.20;;;;;;5095117;28;20024;-81
2021/10/09 08:45:34;;;;;;;16.50;9.38;;;11.10;97.00;;;;;;5094660;28;20050;-81
2021/10/09 08:48:00;;;;;;;15.93;9.27;;;11.10;97.00;;;;;;5094044;28;20111;-81
2021/10/09 08:50:25;;;;;;;20.05;9.70;;;11.10;96.80;;;;;;5093733;28;20089;-81
2021/10/09 08:53:09;;;;;;;24.10;10.23;;;11.20;96.60;;;;;;5093851;28;20027;-81
2021/10/09 08:55:38;;;;;;;20.10;9.85;;;11.20;97.00;;;;;;5098298;28;20024;-80
2021/10/09 08:58:13;;;;;;;17.30;9.07;;;11.30;96.60;;;;;;5097283;28;20048;-81
2021/10/09 09:00:59;;;;;;;19.88;9.23;;;11.30;96.60;;;;;;5094344;28;20032;-81
2021/10/09 09:38:55;;;;;;;20.38;9.07;;;12.20;96.20;;;;;;5075684;28;20094;-81
2021/10/09 09:41:23;;;;;;;18.67;9.45;;;12.30;96.60;;;;;;5074259;28;20112;-80
2021/10/09 09:43:51;;;;;;;17.60;9.07;;;12.30;96.30;;;;;;5073229;28;20024;-81
2021/10/09 09:46:19;;;;;;;18.13;9.40;;;12.40;95.90;;;;;;5074973;28;20032;-81
2021/10/09 09:48:46;;;;;;;17.00;9.20;;;12.50;96.30;;;;;;5074789;28;20021;-81
2021/10/09 09:51:18;;;;;;;20.85;9.70;;;12.60;96.00;;;;;;5074220;28;20024;-81
2021/10/09 09:53:47;;;;;;;22.95;10.60;;;12.60;95.70;;;;;;5073227;28;20021;-81
2021/10/09 09:56:14;;;;;;;19.27;9.52;;;12.60;94.70;;;;;;5074387;28;20048;-81
2021/10/09 09:58:42;;;;;;;23.15;10.20;;;12.60;94.70;;;;;;5073233;28;20032;-81
2021/10/09 10:01:10;;;;;;;18.75;8.32;;;12.70;95.10;;;;;;5073942;28;20036;-81
2021/10/09 10:03:37;;;;;;;18.40;8.68;;;12.80;95.30;;;;;;5074011;28;20025;-81
2021/10/09 10:06:04;;;;;;;16.67;8.48;;;12.90;94.90;;;;;;5074425;28;20071;-81
2021/10/09 10:08:30;;;;;;;19.17;9.23;;;12.90;94.70;;;;;;5072638;28;20035;-87
2021/10/09 10:10:57;;;;;;;20.95;9.10;;;13.00;94.10;;;;;;5090311;28;20029;-81
2021/10/09 10:13:28;;;;;;;16.50;8.90;;;13.10;94.70;;;;;;5073424;28;20453;-81
2021/10/09 10:15:54;;;;;;;14.77;8.55;;;13.10;94.60;;;;;;5089921;28;20397;-81
2021/10/09 10:18:45;;;;;;;19.95;9.52;;;13.20;94.20;;;;;;5089059;28;20025;-81
2021/10/09 10:21:38;;;;;;;19.02;8.88;;;13.20;93.40;;;;;;5090907;28;20023;-81
2021/10/09 10:24:09;;;;;;;17.25;9.07;;;13.20;93.90;;;;;;5094158;28;20468;-80
2021/10/09 10:26:34;;;;;;;20.67;9.52;;;13.30;94.00;;;;;;5088814;28;20034;-81
2021/10/09 10:29:00;;;;;;;28.17;11.05;;;13.30;93.30;;;;;;5074792;28;20111;-81
2021/10/09 10:31:28;;;;;;;25.10;10.50;;;13.30;93.30;;;;;;5102335;28;20022;-80
2021/10/09 10:34:24;;;;;;;18.35;9.23;;;13.40;94.10;;;;;;5098980;28;20475;-80
2021/10/09 10:36:50;;;;;;;13.95;8.55;;;13.40;93.90;;;;;;5089180;28;20032;-81
2021/10/09 10:39:18;;;;;;;20.33;9.05;;;13.50;93.80;;;;;;5093181;28;20423;-81
2021/10/09 10:42:02;;;;;;;19.05;9.18;;;13.50;93.50;;;;;;5092330;28;20029;-81
2021/10/09 10:45:06;;;;;;;19.20;9.63;;;13.60;93.70;;;;;;5093204;28;20089;-80
2021/10/09 10:47:50;;;;;;;19.20;8.88;;;13.70;94.00;;;;;;5091975;28;20028;-81
2021/10/09 10:53:24;;;;;;;14.65;8.20;;;13.80;93.10;;;;;;5054645;28;20040;-81
2021/10/09 10:56:07;;;;;;;23.02;9.38;;;13.80;93.00;;;;;;5072468;28;20226;-80
2021/10/09 10:58:33;;;;;;;17.58;8.48;;;13.90;93.10;;;;;;5081479;28;20044;-81
2021/10/09 11:01:18;;;;;;;17.50;9.13;;;13.90;93.10;;;;;;5079449;28;20032;-80
2021/10/09 11:03:50;;;;;;;19.77;8.80;;;14.10;93.50;;;;;;5093101;28;20024;-80
2021/10/09 11:06:18;;;;;;;18.25;8.95;;;14.00;93.10;;;;;;5092593;28;20124;-81
2021/10/09 11:08:45;;;;;;;17.85;8.55;;;14.10;92.50;;;;;;5092060;28;20028;-81
2021/10/09 11:11:11;;;;;;;18.13;9.43;;;14.10;92.50;;;;;;5092297;28;20024;-80
2021/10/09 11:13:41;;;;;;;19.55;9.15;;;14.20;92.10;;;;;;5092388;28;20024;-81
2021/10/09 11:16:06;;;;;;;17.30;9.27;;;14.20;92.10;;;;;;5093313;28;20029;-80
2021/10/09 11:18:49;;;;;;;18.73;8.70;;;14.30;92.10;;;;;;5092468;28;20028;-84
2021/10/09 11:21:16;;;;;;;16.17;8.48;;;14.30;92.40;;;;;;5097066;28;20027;-80
2021/10/09 11:23:50;;;;;;;16.20;8.65;;;14.40;92.60;;;;;;5093716;28;20020;-81
2021/10/09 11:26:17;;;;;;;18.85;8.68;;;14.50;93.00;;;;;;5092480;28;20058;-80
2021/10/09 11:28:43;;;;;;;15.23;7.70;;;14.50;92.40;;;;;;5092091;28;20028;-80
2021/10/09 11:31:09;;;;;;;20.00;9.65;;;14.60;91.60;;;;;;5092927;28;20027;-79
2021/10/09 11:33:36;;;;;;;18.48;9.10;;;14.60;91.10;;;;;;5091885;28;20028;-79
2021/10/09 11:36:03;;;;;;;15.55;8.18;;;14.60;92.00;;;;;;5092846;28;20028;-79
2021/10/09 11:38:32;;;;;;;19.05;8.63;;;14.70;92.00;;;;;;5074249;28;20477;-80
2021/10/09 11:41:04;;;;;;;17.30;8.55;;;14.70;91.90;;;;;;5071831;28;20036;-81
2021/10/09 11:46:25;;;;;;;14.27;7.40;;;14.90;91.00;;;;;;5079624;28;20040;-81
2021/10/09 11:54:36;;;;;;;13.75;7.63;;;15.30;90.10;;;;;;5097146;28;20039;-81
2021/10/09 11:57:07;;;;;;;13.48;7.82;;;15.40;90.60;;;;;;5095382;28;20075;-81
2021/10/09 11:59:40;;;;;;;16.50;7.97;;;15.60;89.20;;;;;;5096473;28;20028;-79
2021/10/09 12:02:06;;;;;;;15.23;8.25;;;15.70;87.60;;;;;;5096003;28;20544;-80
2021/10/09 12:04:33;;;;;;;17.95;9.05;;;15.80;87.90;;;;;;5095831;28;20500;-81
2021/10/09 12:07:09;;;;;;;14.00;8.70;;;16.00;87.60;;;;;;5094788;28;20047;-81
2021/10/09 12:09:45;;;;;;;15.52;8.63;;;16.10;85.80;;;;;;5095749;28;20024;-80
2021/10/09 12:12:21;;;;;;;15.90;8.35;;;16.30;86.20;;;;;;5094806;28;20118;-81
2021/10/09 12:14:49;;;;;;;13.48;7.82;;;16.60;86.40;;;;;;5078448;28;20106;-81
2021/10/09 12:17:16;;;;;;;13.10;7.45;;;16.80;85.10;;;;;;5082727;28;20033;-81
2021/10/09 12:19:42;;;;;;;17.08;8.57;;;17.00;84.20;;;;;;5095559;28;20032;-81
2021/10/09 12:22:13;;;;;;;16.73;7.22;;;17.10;82.60;;;;;;5094349;28;20030;-81
2021/10/09 12:24:50;;;;;;;15.93;8.73;;;17.30;81.70;;;;;;5093258;28;20032;-86
2021/10/09 12:27:26;;;;;;;14.43;7.35;;;17.40;79.60;;;;;;5096278;28;20048;-79
2021/10/09 12:30:10;;;;;;;17.30;7.32;;;17.60;79.70;;;;;;5094527;28;20112;-80
2021/10/09 12:32:41;;;;;;;11.68;7.20;;;17.80;78.80;;;;;;5075610;28;20024;-81
2021/10/09 12:35:07;;;;;;;14.25;7.78;;;17.90;77.80;;;;;;5075066;28;20560;-81
2021/10/09 12:37:34;;;;;;;17.27;7.55;;;18.00;77.90;;;;;;5081734;28;20039;-81
2021/10/09 12:40:17;;;;;;;18.58;7.30;;;18.30;75.80;;;;;;5095995;28;20471;-81
2021/10/09 12:42:48;;;;;;;12.63;6.80;;;18.70;73.90;;;;;;5089110;28;20020;-81
2021/10/09 12:45:14;;;;;;;14.52;6.80;;;19.10;72.80;;;;;;5075653;28;20056;-80
2021/10/09 12:47:42;;;;;;;14.55;7.60;;;19.60;71.60;;;;;;5078951;28;20074;-80
2021/10/09 12:50:08;;;;;;;13.95;7.53;;;20.00;68.90;;;;;;5100485;28;20484;-80
2021/10/09 12:52:33;;;;;;;11.05;6.63;;;20.20;67.50;;;;;;5099020;28;20023;-80
2021/10/09 12:55:02;;;;;;;14.40;6.80;;;20.60;65.40;;;;;;5098089;28;20043;-80
2021/10/09 12:57:28;;;;;;;11.18;7.03;;;20.90;62.30;;;;;;5128030;27;20048;-80
2021/10/09 12:59:54;;;;;;;11.93;6.38;;;21.30;61.70;;;;;;5089499;28;20024;-80
2021/10/09 13:02:19;;;;;;;12.07;6.57;;;21.60;61.00;;;;;;5082374;28;20029;-80
2021/10/09 13:04:45;;;;;;;12.70;7.10;;;22.10;59.00;;;;;;5099382;28;20452;-80
2021/10/09 13:07:10;;;;;;;11.35;6.22;;;22.30;56.80;;;;;;5095171;28;20032;-80
2021/10/09 13:09:36;;;;;;;11.80;6.55;;;22.50;56.70;;;;;;5094539;28;20024;-80
2021/10/09 13:12:04;;;;;;;12.68;7.00;;;22.60;54.70;;;;;;5093837;28;20073;-80
2021/10/09 13:14:33;;;;;;;12.57;6.25;;;23.20;54.70;;;;;;5095921;28;20480;-81
2021/10/09 13:16:59;;;;;;;12.45;6.95;;;23.70;52.90;;;;;;5091759;28;20116;-80
2021/10/09 13:19:25;;;;;;;14.95;6.68;;;24.00;52.20;;;;;;5094883;28;20377;-80
2021/10/09 13:21:51;;;;;;;11.73;6.43;;;24.50;51.10;;;;;;5093184;28;20377;-80
2021/10/09 13:24:16;;;;;;;10.35;5.97;;;24.90;49.70;;;;;;5094542;28;20027;-82
2021/10/09 13:26:42;;;;;;;11.70;6.10;;;25.40;49.80;;;;;;5088855;28;20020;-81
2021/10/09 13:29:11;;;;;;;11.73;6.22;;;25.90;48.10;;;;;;5094478;28;20024;-81
2021/10/09 13:31:36;;;;;;;12.30;6.80;;;26.30;47.00;;;;;;5093726;28;20020;-81
2021/10/09 13:34:02;;;;;;;10.80;6.75;;;26.60;46.20;;;;;;5092945;28;20603;-80
2021/10/09 13:36:28;;;;;;;11.27;6.65;;;26.60;44.50;;;;;;5093735;28;20558;-80
2021/10/09 13:38:54;;;;;;;9.45;6.25;;;26.60;45.20;;;;;;5093489;28;20381;-80
2021/10/09 13:41:20;;;;;;;9.95;6.43;;;26.80;46.00;;;;;;5093800;28;20062;-80
2021/10/09 13:43:46;;;;;;;11.90;6.55;;;26.90;44.80;;;;;;5093030;28;20024;-81
2021/10/09 13:46:13;;;;;;;12.82;6.35;;;27.00;45.00;;;;;;5093646;28;20024;-80
2021/10/09 13:49:19;;;;;;;11.55;5.97;;;26.70;44.80;;;;;;5093401;28;20126;-80
2021/10/09 13:51:53;;;;;;;15.07;6.07;;;26.50;43.70;;;;;;5092804;28;20035;-80
2021/10/09 13:54:19;;;;;;;9.30;6.05;;;26.20;44.60;;;;;;5094474;28;20106;-80
2021/10/09 13:56:44;;;;;;;11.68;6.22;;;26.10;45.90;;;;;;5092427;28;20489;-80
2021/10/09 13:59:10;;;;;;;14.88;5.90;;;25.70;46.60;;;;;;5093140;28;20024;-80
2021/10/09 14:01:36;;;;;;;9.73;6.50;;;25.10;47.70;;;;;;5106412;28;20055;-80
2021/10/09 14:04:04;;;;;;;10.40;5.90;;;24.60;47.30;;;;;;5098431;28;20441;-81
2021/10/09 14:06:30;;;;;;;12.35;6.15;;;24.10;48.20;;;;;;5093103;28;20070;-81
2021/10/09 14:08:55;;;;;;;13.30;6.63;;;23.70;48.50;;;;;;5092904;28;20024;-81
2021/10/09 14:11:21;;;;;;;10.82;6.07;;;23.30;50.10;;;;;;5108849;28;20031;-81
2021/10/09 14:13:48;;;;;;;10.38;5.90;;;22.70;50.20;;;;;;5096299;28;20131;-81
2021/10/09 14:16:14;;;;;;;14.27;6.10;;;22.20;52.10;;;;;;5093107;28;20024;-81
2021/10/09 14:18:39;;;;;;;9.10;5.63;;;22.00;53.40;;;;;;5081958;28;20025;-80
2021/10/09 14:21:05;;;;;;;13.07;6.10;;;21.60;54.10;;;;;;5089912;28;20512;-81
2021/10/09 14:23:31;;;;;;;12.27;6.00;;;21.20;54.20;;;;;;5093589;28;20026;-81
2021/10/09 14:25:57;;;;;;;10.93;6.07;;;21.00;55.40;;;;;;5092121;28;20032;-81
2021/10/09 14:28:22;;;;;;;11.50;6.40;;;20.60;54.70;;;;;;5092336;28;20021;-81
2021/10/09 14:30:50;;;;;;;12.90;6.75;;;20.20;55.80;;;;;;5091471;28;20370;-81
2021/10/09 14:33:17;;;;;;;14.15;6.93;;;20.00;57.20;;;;;;5091739;28;20122;-82
2021/10/09 14:35:43;;;;;;;11.57;6.05;;;19.90;58.40;;;;;;5096745;28;20066;-81
2021/10/09 14:38:09;;;;;;;10.88;6.28;;;19.70;57.90;;;;;;5094158;28;20453;-82
2021/10/09 14:40:35;;;;;;;12.93;5.78;;;19.50;58.70;;;;;;5102885;28;20080;-82
2021/10/09 14:43:01;;;;;;;12.38;6.50;;;19.40;59.40;;;;;;5111696;28;20023;-81
2021/10/09 14:45:28;;;;;;;13.20;5.80;;;19.20;60.80;;;;;;5095884;28;20540;-81
2021/10/09 14:47:59;;;;;;;13.05;6.05;;;19.00;60.90;;;;;;5091240;28;20058;-82